Time;durP1;ratioP1;P1;durP2;ratioP2;P2;SDS_P1;SDS_P2;PMS_P1;PMS_P2;Temp;Humidity;BMP_temperature;BMP_pressure;BME280_temperature;BME280_humidity;BME280_pressure;Samples;Min_cycle;Max_cycle;Signal;HPM_P1;HPM_P2
2023/06/28 00:01:42;;;;;;;2.60;1.90;;;;;;;19.96;48.80;98252.69;5050987;28;20709;-82
2023/06/28 00:04:10;;;;;;;3.17;2.17;;;;;;;19.97;48.75;98253.53;5051025;28;20223;-83
2023/06/28 00:06:37;;;;;;;2.30;1.90;;;;;;;19.98;48.65;98255.19;5050846;28;20208;-83
2023/06/28 00:09:03;;;;;;;3.83;1.80;;;;;;;19.99;48.76;98252.38;5051063;28;20211;-83
2023/06/28 00:11:30;;;;;;;2.97;1.80;;;;;;;19.93;49.24;98263.75;5050675;28;20224;-82
2023/06/28 00:13:56;;;;;;;3.90;1.90;;;;;;;19.90;49.26;98264.06;5051030;28;20208;-83
2023/06/28 00:16:23;;;;;;;3.90;1.83;;;;;;;19.91;49.32;98264.91;5050766;28;20219;-83
2023/06/28 00:18:49;;;;;;;3.57;1.73;;;;;;;19.82;49.66;98266.69;5050987;28;20215;-83
2023/06/28 00:21:17;;;;;;;3.10;1.83;;;;;;;19.70;49.69;98272.50;5050706;28;20234;-83
2023/06/28 00:23:44;;;;;;;2.43;1.70;;;;;;;19.76;49.80;98267.34;5051060;28;20204;-83
2023/06/28 00:26:10;;;;;;;2.70;1.70;;;;;;;19.70;50.23;98259.94;5050908;28;20208;-83
2023/06/28 00:28:37;;;;;;;4.13;2.17;;;;;;;19.63;50.67;98274.97;5050725;28;20228;-79
2023/06/28 00:31:03;;;;;;;3.27;2.17;;;;;;;19.63;50.66;98274.97;5050357;28;20227;-83
2023/06/28 00:33:30;;;;;;;2.77;2.20;;;;;;;19.59;50.38;98276.31;5051044;28;20218;-82
2023/06/28 00:35:56;;;;;;;2.73;1.97;;;;;;;19.52;50.90;98279.78;5050984;28;20212;-82
2023/06/28 00:38:24;;;;;;;3.60;2.10;;;;;;;19.45;51.02;98279.56;5050817;28;20611;-82
2023/06/28 00:40:50;;;;;;;3.13;2.03;;;;;;;19.41;51.61;98288.94;5050415;28;20200;-82
2023/06/28 00:43:17;;;;;;;2.67;1.97;;;;;;;19.30;51.54;98289.19;5050866;28;20211;-82
2023/06/28 00:45:43;;;;;;;3.03;1.93;;;;;;;19.28;51.81;98295.69;5050487;28;20211;-82
2023/06/28 00:48:10;;;;;;;3.00;2.00;;;;;;;19.16;52.45;98299.59;5051032;28;20235;-82
2023/06/28 00:50:38;;;;;;;4.63;2.00;;;;;;;19.27;52.31;98291.34;5050433;28;20232;-83
2023/06/28 00:53:05;;;;;;;2.67;1.90;;;;;;;19.33;52.23;98304.94;5050613;28;20208;-83
2023/06/28 00:55:33;;;;;;;7.03;1.93;;;;;;;19.30;51.47;98294.53;5050777;28;20208;-83
2023/06/28 00:58:00;;;;;;;4.73;2.27;;;;;;;19.35;52.07;98297.59;5050464;28;20334;-83
2023/06/28 01:00:28;;;;;;;4.67;2.10;;;;;;;19.25;52.01;98299.53;5050031;28;20298;-83
2023/06/28 01:02:55;;;;;;;1.93;1.67;;;;;;;19.22;52.03;98294.50;5050599;28;20627;-83
2023/06/28 01:05:21;;;;;;;5.50;1.90;;;;;;;19.31;52.25;98304.25;5052621;28;20212;-83
2023/06/28 01:07:50;;;;;;;4.53;2.00;;;;;;;19.29;52.11;98303.59;5054100;28;20228;-83
2023/06/28 01:10:18;;;;;;;4.67;2.00;;;;;;;19.27;52.13;98310.91;5054321;28;20247;-82
2023/06/28 01:12:47;;;;;;;3.93;2.30;;;;;;;19.18;52.38;98309.16;5054257;28;20223;-82
2023/06/28 01:15:14;;;;;;;2.87;1.93;;;;;;;19.20;52.61;98315.22;5054113;28;20671;-83
2023/06/28 01:17:41;;;;;;;2.33;2.00;;;;;;;19.20;52.80;98315.22;5054144;28;20231;-83
2023/06/28 01:20:09;;;;;;;3.17;2.27;;;;;;;19.02;53.59;98321.56;5053672;28;20204;-83
2023/06/28 01:22:40;;;;;;;3.07;1.73;;;;;;;18.94;54.58;98330.38;5053969;28;20212;-83
2023/06/28 01:25:09;;;;;;;3.27;1.80;;;;;;;18.89;54.47;98324.63;5054130;28;20208;-82
2023/06/28 01:27:37;;;;;;;4.57;2.10;;;;;;;18.85;55.16;98328.63;5053549;28;20250;-82
2023/06/28 01:30:05;;;;;;;2.33;1.80;;;;;;;18.78;55.65;98327.53;5053701;28;20302;-82
2023/06/28 01:32:31;;;;;;;3.23;2.07;;;;;;;18.75;55.11;98327.84;5053699;28;20232;-82
2023/06/28 01:34:58;;;;;;;2.83;2.07;;;;;;;18.74;55.57;98323.47;5053683;28;20211;-82
2023/06/28 01:37:25;;;;;;;3.00;1.90;;;;;;;18.34;57.97;98331.06;5053365;28;20722;-82
2023/06/28 01:39:51;;;;;;;2.80;1.87;;;;;;;17.97;60.13;98343.59;5053322;28;20205;-82
2023/06/28 01:42:20;;;;;;;3.20;2.00;;;;;;;17.68;64.83;98358.06;5053509;28;20204;-83
2023/06/28 01:44:47;;;;;;;3.40;2.20;;;;;;;17.48;69.74;98359.91;5053736;28;20215;-83
2023/06/28 01:47:13;;;;;;;3.47;1.93;;;;;;;17.26;70.37;98354.84;5053383;28;20264;-82
2023/06/28 01:49:40;;;;;;;3.43;2.10;;;;;;;17.12;71.78;98347.25;5053270;28;20257;-82
2023/06/28 01:52:07;;;;;;;6.10;2.50;;;;;;;17.03;76.50;98353.47;5053448;28;20228;-81
2023/06/28 01:54:35;;;;;;;3.17;2.57;;;;;;;17.02;78.48;98345.59;5054087;28;20693;-81
2023/06/28 01:57:02;;;;;;;7.63;2.40;;;;;;;16.98;79.14;98350.34;5073357;28;20240;-81
2023/06/28 01:59:30;;;;;;;3.37;2.70;;;;;;;16.97;81.01;98348.69;5073310;28;20207;-81
2023/06/28 02:01:58;;;;;;;3.83;2.43;;;;;;;17.02;80.18;98351.75;5073286;28;20249;-81
2023/06/28 02:04:24;;;;;;;4.37;2.40;;;;;;;17.04;79.27;98331.09;5073113;28;20203;-81
2023/06/28 02:06:51;;;;;;;2.53;2.23;;;;;;;17.07;79.92;98338.81;5072888;28;20234;-81
2023/06/28 02:09:17;;;;;;;2.87;2.47;;;;;;;17.10;80.01;98343.91;5072589;28;20223;-81
2023/06/28 02:11:44;;;;;;;2.53;2.20;;;;;;;17.10;80.14;98337.69;5073205;28;20310;-81
2023/06/28 02:14:10;;;;;;;2.80;2.13;;;;;;;17.11;79.16;98340.22;5073038;28;20207;-81
2023/06/28 02:16:38;;;;;;;3.50;2.40;;;;;;;17.08;79.20;98340.50;5072296;28;20203;-81
2023/06/28 02:19:05;;;;;;;2.57;2.37;;;;;;;17.05;81.26;98346.13;5072651;28;20530;-81
2023/06/28 02:21:31;;;;;;;3.10;2.47;;;;;;;17.06;81.28;98345.16;5072659;28;20623;-81
2023/06/28 02:23:58;;;;;;;3.67;2.43;;;;;;;17.05;82.44;98340.81;5073029;28;20211;-82
2023/06/28 02:26:24;;;;;;;3.23;2.30;;;;;;;17.08;82.46;98339.69;5072753;28;20204;-81
2023/06/28 02:28:51;;;;;;;3.10;2.60;;;;;;;17.05;81.62;98343.47;5072833;28;20211;-81
2023/06/28 02:31:17;;;;;;;2.90;2.40;;;;;;;17.01;80.57;98338.56;5072589;28;20242;-84
2023/06/28 02:33:45;;;;;;;3.33;3.00;;;;;;;16.97;80.36;98342.47;5072465;28;20673;-81
2023/06/28 02:36:12;;;;;;;2.83;2.43;;;;;;;16.99;80.45;98336.03;5072464;28;20204;-81
2023/06/28 02:38:39;;;;;;;2.60;2.30;;;;;;;16.99;79.68;98340.50;5072318;28;20732;-81
2023/06/28 02:41:05;;;;;;;4.20;2.73;;;;;;;17.02;79.72;98340.25;5072220;28;20527;-81
2023/06/28 02:43:32;;;;;;;3.40;2.33;;;;;;;17.05;79.35;98351.47;5072498;28;20203;-82
2023/06/28 02:45:58;;;;;;;3.10;2.43;;;;;;;17.10;78.96;98338.56;5072348;28;20252;-81
2023/06/28 02:48:25;;;;;;;4.37;2.63;;;;;;;17.12;77.61;98331.22;5072189;28;20234;-81
2023/06/28 02:50:52;;;;;;;4.33;2.47;;;;;;;17.17;77.21;98328.97;5071854;28;20215;-81
2023/06/28 02:53:19;;;;;;;3.80;2.47;;;;;;;17.20;75.87;98318.00;5072388;28;20234;-81
2023/06/28 02:55:45;;;;;;;4.73;2.40;;;;;;;17.30;74.75;98323.31;5071932;28;20211;-81
2023/06/28 02:58:13;;;;;;;2.53;2.33;;;;;;;17.36;74.26;98320.94;5074749;22;20631;-75
2023/06/28 03:00:40;;;;;;;2.40;2.17;;;;;;;17.43;73.14;98316.75;5051467;28;20219;-75
2023/06/28 03:03:09;;;;;;;2.60;2.30;;;;;;;17.49;72.85;98318.00;5052127;28;20215;-76
2023/06/28 03:05:35;;;;;;;4.63;2.20;;;;;;;17.50;72.44;98304.47;5052002;28;20222;-74
2023/06/28 03:08:04;;;;;;;4.13;2.63;;;;;;;17.53;71.80;98314.91;5052170;28;20239;-76
2023/06/28 03:10:30;;;;;;;3.77;2.33;;;;;;;17.61;71.25;98314.19;5051667;28;20215;-74
2023/06/28 03:12:57;;;;;;;3.10;2.30;;;;;;;17.65;70.89;98313.75;5052146;28;20240;-75
2023/06/28 03:15:23;;;;;;;3.13;2.30;;;;;;;17.69;70.81;98312.44;5051904;28;20216;-75
2023/06/28 03:17:50;;;;;;;3.20;2.20;;;;;;;17.70;70.99;98306.13;5051721;28;20258;-75
2023/06/28 03:20:16;;;;;;;3.67;2.23;;;;;;;17.75;70.34;98311.84;5051680;28;20223;-75
2023/06/28 03:22:43;;;;;;;4.40;2.70;;;;;;;17.75;70.14;98308.34;5051926;28;20211;-76
2023/06/28 03:25:11;;;;;;;2.97;2.37;;;;;;;17.73;70.03;98316.50;5051765;28;20754;-76
2023/06/28 03:27:37;;;;;;;4.50;2.50;;;;;;;17.75;69.64;98311.84;5051259;28;20239;-75
2023/06/28 03:30:05;;;;;;;3.03;2.30;;;;;;;17.76;69.75;98310.03;5050991;28;20212;-75
2023/06/28 03:32:31;;;;;;;4.00;2.40;;;;;;;17.76;69.47;98310.88;5051557;28;20320;-75
2023/06/28 03:34:58;;;;;;;6.07;2.43;;;;;;;17.79;69.28;98313.25;5051769;28;20578;-76
2023/06/28 03:37:24;;;;;;;4.00;2.23;;;;;;;17.83;68.71;98309.31;5051781;28;20323;-75
2023/06/28 03:39:51;;;;;;;2.93;2.43;;;;;;;17.82;69.02;98310.31;5051423;28;20296;-75
2023/06/28 03:42:19;;;;;;;4.43;2.20;;;;;;;17.87;68.38;98307.19;5051648;28;20208;-75
2023/06/28 03:44:45;;;;;;;3.40;2.20;;;;;;;17.89;67.99;98299.84;5051400;28;20572;-75
2023/06/28 03:47:12;;;;;;;3.97;2.40;;;;;;;17.93;67.41;98298.56;5051756;28;20603;-76
2023/06/28 03:49:39;;;;;;;3.00;2.50;;;;;;;17.96;67.12;98291.09;5051362;28;20219;-76
2023/06/28 03:52:07;;;;;;;4.30;2.50;;;;;;;17.99;66.75;98295.31;5051364;28;20224;-75
2023/06/28 03:54:33;;;;;;;2.60;2.20;;;;;;;18.00;66.92;98295.16;5051556;28;20208;-75
2023/06/28 03:57:00;;;;;;;3.47;2.40;;;;;;;18.00;67.25;98297.00;5051211;28;20216;-76
2023/06/28 03:59:28;;;;;;;3.13;2.37;;;;;;;17.98;66.76;98293.63;5051065;28;20667;-73
2023/06/28 04:01:54;;;;;;;2.53;2.33;;;;;;;17.98;66.88;98299.81;5051398;28;20212;-76
2023/06/28 04:04:21;;;;;;;4.23;2.37;;;;;;;17.96;67.88;98307.13;5051558;28;20208;-75
2023/06/28 04:06:47;;;;;;;4.43;2.50;;;;;;;17.97;68.37;98316.84;5051323;28;20203;-74
2023/06/28 04:09:15;;;;;;;2.47;2.03;;;;;;;17.97;69.96;98327.53;5051123;28;20307;-74
2023/06/28 04:11:41;;;;;;;2.70;2.43;;;;;;;17.99;70.50;98325.56;5051094;28;20230;-75
2023/06/28 04:14:08;;;;;;;2.63;2.30;;;;;;;17.87;69.22;98318.69;5051194;28;20212;-74
2023/06/28 04:16:36;;;;;;;3.83;2.83;;;;;;;17.85;68.73;98323.38;5051300;28;20215;-76
2023/06/28 04:19:02;;;;;;;4.57;2.87;;;;;;;17.83;68.52;98322.69;5051219;28;20228;-76
2023/06/28 04:21:28;;;;;;;3.13;2.40;;;;;;;17.82;68.96;98321.00;5050891;28;20211;-76
2023/06/28 04:23:55;;;;;;;4.37;2.37;;;;;;;17.81;69.07;98323.81;5051332;28;20572;-74
2023/06/28 04:26:21;;;;;;;2.97;2.63;;;;;;;17.84;69.99;98323.50;5052657;28;20435;-74
2023/06/28 04:28:48;;;;;;;2.77;2.07;;;;;;;17.85;70.53;98335.91;5070986;28;20238;-73
2023/06/28 04:31:15;;;;;;;3.90;2.40;;;;;;;17.85;70.67;98331.38;5070891;28;20211;-73
2023/06/28 04:33:42;;;;;;;3.83;2.60;;;;;;;17.87;70.02;98334.75;5070965;28;20316;-72
2023/06/28 04:36:09;;;;;;;4.33;2.57;;;;;;;17.93;69.42;98334.16;5070986;28;20211;-73
2023/06/28 04:38:37;;;;;;;3.53;2.63;;;;;;;17.96;68.86;98328.53;5070964;28;20285;-72
2023/06/28 04:41:03;;;;;;;3.03;2.67;;;;;;;17.98;69.06;98331.91;5073799;28;20238;-74
2023/06/28 04:43:39;;;;;;;3.77;2.53;;;;;;;18.01;69.29;98336.13;5074768;28;20727;-75
2023/06/28 04:46:11;;;;;;;3.60;2.57;;;;;;;18.03;69.94;98340.31;5074909;28;20260;-73
2023/06/28 04:48:38;;;;;;;3.73;2.60;;;;;;;18.07;69.65;98331.03;5074765;28;20231;-73
2023/06/28 04:51:06;;;;;;;6.93;2.60;;;;;;;18.08;71.21;98343.41;5074470;28;20640;-73
2023/06/28 04:53:32;;;;;;;4.17;2.40;;;;;;;18.12;71.60;98338.59;5074338;28;20230;-73
2023/06/28 04:56:00;;;;;;;2.37;2.17;;;;;;;18.16;69.51;98335.47;5074824;28;20207;-72
2023/06/28 04:58:27;;;;;;;2.77;2.40;;;;;;;18.20;67.82;98325.31;5074372;28;20235;-73
2023/06/28 05:00:56;;;;;;;4.00;2.20;;;;;;;18.24;65.97;98322.19;5074347;28;20275;-75
2023/06/28 05:03:27;;;;;;;2.40;2.20;;;;;;;18.32;64.41;98330.38;5074413;28;20739;-73
2023/06/28 05:05:54;;;;;;;4.30;2.57;;;;;;;18.27;65.30;98321.91;5074475;28;20203;-73
2023/06/28 05:08:22;;;;;;;4.57;2.70;;;;;;;18.32;65.65;98329.50;5074365;28;20343;-71
2023/06/28 05:10:48;;;;;;;3.90;2.47;;;;;;;18.35;65.36;98329.22;5074293;28;20211;-71
2023/06/28 05:13:15;;;;;;;3.60;2.20;;;;;;;18.37;65.67;98324.56;5074097;28;20594;-71
2023/06/28 05:15:41;;;;;;;3.70;2.40;;;;;;;18.43;66.08;98330.16;5074284;28;20207;-72
2023/06/28 05:18:08;;;;;;;2.93;2.40;;;;;;;18.48;66.59;98327.88;5074078;28;20610;-73
2023/06/28 05:20:34;;;;;;;3.73;2.33;;;;;;;18.45;66.66;98330.00;5073797;28;20203;-73
2023/06/28 05:23:11;;;;;;;3.33;2.40;;;;;;;18.43;65.65;98318.59;5073895;28;20661;-72
2023/06/28 05:25:43;;;;;;;3.03;2.13;;;;;;;18.40;65.38;98322.44;5073960;28;20665;-73
2023/06/28 05:28:11;;;;;;;2.97;2.30;;;;;;;18.39;65.44;98320.75;5073941;28;20702;-74
2023/06/28 05:30:37;;;;;;;3.77;2.40;;;;;;;18.39;65.47;98323.44;5073742;28;20207;-72
2023/06/28 05:33:04;;;;;;;3.37;2.43;;;;;;;18.36;65.81;98330.91;5073669;28;20727;-73
2023/06/28 05:35:31;;;;;;;5.47;2.83;;;;;;;18.35;66.82;98329.22;5074089;28;20571;-72
2023/06/28 05:37:57;;;;;;;3.60;2.53;;;;;;;18.39;66.68;98335.94;5073856;28;20239;-72
2023/06/28 05:40:24;;;;;;;3.83;2.40;;;;;;;18.45;66.74;98333.53;5073540;28;20214;-73
2023/06/28 05:42:53;;;;;;;3.37;2.30;;;;;;;18.54;66.68;98332.63;5073635;28;20207;-74
2023/06/28 05:45:20;;;;;;;2.73;2.40;;;;;;;18.65;66.23;98321.69;5073704;28;20893;-73
2023/06/28 05:47:46;;;;;;;3.17;2.40;;;;;;;18.74;64.82;98315.44;5073466;28;20234;-74
2023/06/28 05:50:13;;;;;;;2.87;2.40;;;;;;;18.79;65.04;98306.94;5073407;28;20217;-73
2023/06/28 05:52:39;;;;;;;4.03;2.30;;;;;;;18.89;65.56;98319.25;5072384;28;20693;-73
2023/06/28 05:55:06;;;;;;;3.27;2.23;;;;;;;18.97;66.06;98316.66;5073669;28;20302;-73
2023/06/28 05:57:33;;;;;;;4.47;2.60;;;;;;;19.08;65.72;98313.75;5073329;28;20239;-73
2023/06/28 06:00:01;;;;;;;3.37;2.27;;;;;;;19.21;65.02;98297.31;5073085;28;20207;-75
2023/06/28 06:02:27;;;;;;;3.03;2.17;;;;;;;19.28;64.29;98306.41;5073107;28;20206;-74
2023/06/28 06:04:54;;;;;;;2.87;2.53;;;;;;;19.36;63.95;98312.69;5073226;28;20298;-73
2023/06/28 06:07:20;;;;;;;3.93;2.47;;;;;;;19.39;64.37;98311.53;5073113;28;20235;-74
2023/06/28 06:09:47;;;;;;;3.47;2.37;;;;;;;19.43;63.75;98307.50;5073045;28;20211;-73
2023/06/28 06:12:13;;;;;;;3.30;2.50;;;;;;;19.51;62.32;98300.38;5073079;28;20208;-73
2023/06/28 06:14:40;;;;;;;3.07;2.40;;;;;;;19.55;62.32;98307.13;5072948;28;20204;-74
2023/06/28 06:17:08;;;;;;;4.10;2.20;;;;;;;19.59;61.46;98292.41;5073260;28;20231;-75
2023/06/28 06:19:34;;;;;;;2.77;2.30;;;;;;;19.66;61.79;98295.28;5072767;28;20218;-76
2023/06/28 06:22:01;;;;;;;4.60;2.70;;;;;;;19.61;59.96;98285.03;5072972;28;20211;-76
2023/06/28 06:24:27;;;;;;;3.83;2.70;;;;;;;19.62;59.77;98285.88;5072810;28;20204;-76
2023/06/28 06:26:53;;;;;;;4.53;2.47;;;;;;;19.64;59.57;98290.06;5072763;28;20731;-75
2023/06/28 06:29:20;;;;;;;7.03;2.40;;;;;;;19.67;60.00;98299.63;5072279;28;20212;-76
2023/06/28 06:31:47;;;;;;;3.80;2.30;;;;;;;19.68;59.34;98279.88;5072660;28;20218;-75
2023/06/28 06:34:15;;;;;;;5.03;2.43;;;;;;;19.67;59.63;98284.41;5072702;28;20231;-74
2023/06/28 06:36:41;;;;;;;3.57;2.27;;;;;;;19.74;59.30;98289.97;5072576;28;20210;-76
2023/06/28 06:39:08;;;;;;;3.27;2.37;;;;;;;19.81;59.15;98293.69;5072316;28;20203;-75
2023/06/28 06:41:34;;;;;;;2.93;2.43;;;;;;;19.85;59.12;98301.25;5072559;28;20759;-76
2023/06/28 06:44:01;;;;;;;4.20;2.10;;;;;;;19.91;58.75;98297.94;5072341;28;20203;-76
2023/06/28 06:46:27;;;;;;;3.77;2.37;;;;;;;19.98;58.19;98288.25;5072378;28;20214;-76
2023/06/28 06:48:55;;;;;;;3.60;2.10;;;;;;;20.03;57.25;98290.44;5072368;28;20223;-75
2023/06/28 06:51:23;;;;;;;5.63;2.20;;;;;;;20.08;56.51;98283.66;5071924;28;20678;-77
2023/06/28 06:53:49;;;;;;;3.97;2.03;;;;;;;20.16;56.06;98286.34;5072155;28;20600;-75
2023/06/28 06:56:21;;;;;;;3.90;1.90;;;;;;;20.16;55.95;98286.34;5072108;28;20207;-76
2023/06/28 06:58:48;;;;;;;2.90;2.03;;;;;;;20.23;56.46;98281.19;5071959;28;20794;-74
2023/06/28 07:01:14;;;;;;;4.10;1.87;;;;;;;20.34;56.51;98279.03;5071908;28;20216;-75
2023/06/28 07:03:41;;;;;;;3.00;2.10;;;;;;;20.44;55.65;98285.13;5071874;28;20214;-75
2023/06/28 07:06:08;;;;;;;4.47;2.17;;;;;;;20.54;53.41;98269.69;5072025;28;20731;-74
2023/06/28 07:08:36;;;;;;;4.17;2.57;;;;;;;20.52;51.99;98260.97;5071883;28;20318;-75
2023/06/28 07:11:02;;;;;;;3.97;2.30;;;;;;;20.55;51.54;98259.78;5071683;28;20212;-76
2023/06/28 07:13:29;;;;;;;2.50;1.90;;;;;;;20.54;52.39;98269.69;5071951;28;20231;-75
2023/06/28 07:15:55;;;;;;;4.40;2.10;;;;;;;20.66;52.46;98273.72;5072132;28;20211;-75
2023/06/28 07:18:22;;;;;;;2.60;1.80;;;;;;;20.69;52.01;98273.41;5071880;28;20756;-74
2023/06/28 07:20:48;;;;;;;3.87;2.27;;;;;;;20.67;52.55;98282.66;5071565;28;20207;-75
2023/06/28 07:23:15;;;;;;;2.90;1.70;;;;;;;20.70;53.23;98295.72;5071624;28;20204;-76
2023/06/28 07:25:42;;;;;;;2.30;2.10;;;;;;;20.71;50.87;98270.53;5071648;28;20211;-75
2023/06/28 07:28:09;;;;;;;4.20;2.17;;;;;;;20.74;50.93;98281.81;5071553;28;20732;-75
2023/06/28 07:30:52;;;;;;;3.63;2.07;;;;;;;20.70;51.41;98277.78;5071585;28;20207;-75
2023/06/28 07:33:19;;;;;;;3.53;2.07;;;;;;;20.77;50.56;98276.09;5071599;28;20267;-74
2023/06/28 07:35:45;;;;;;;2.67;1.83;;;;;;;20.64;49.72;98277.59;5071560;28;20214;-75
2023/06/28 07:38:12;;;;;;;5.67;2.20;;;;;;;20.68;50.37;98277.13;5071279;28;20293;-75
2023/06/28 07:40:38;;;;;;;4.60;1.80;;;;;;;20.69;50.82;98291.38;5071112;28;20207;-75
2023/06/28 07:43:06;;;;;;;2.40;2.20;;;;;;;20.62;51.25;98288.53;5071625;28;20231;-75
2023/06/28 07:45:33;;;;;;;3.40;2.00;;;;;;;20.77;49.94;98281.47;5071667;28;20211;-76
2023/06/28 07:47:59;;;;;;;2.27;1.70;;;;;;;20.75;50.77;98298.78;5071398;28;20223;-76
2023/06/28 07:50:26;;;;;;;4.73;2.90;;;;;;;20.75;57.03;98331.84;5071116;28;20215;-76
2023/06/28 07:52:53;;;;;;;5.03;2.90;;;;;;;20.66;58.15;98343.56;5071247;28;20688;-76
2023/06/28 07:55:19;;;;;;;4.23;2.87;;;;;;;20.57;58.76;98341.88;5071405;28;20212;-76
2023/06/28 07:57:46;;;;;;;5.07;2.70;;;;;;;20.59;59.66;98344.38;5071384;28;20246;-75
2023/06/28 08:00:15;;;;;;;4.10;2.60;;;;;;;20.73;58.74;98344.59;5071073;28;20207;-75
2023/06/28 08:02:42;;;;;;;5.17;2.90;;;;;;;20.74;59.68;98340.94;5071291;28;20421;-76
2023/06/28 08:05:09;;;;;;;4.63;2.80;;;;;;;20.83;59.30;98334.56;5071526;28;20211;-76
2023/06/28 08:07:35;;;;;;;6.73;3.43;;;;;;;20.98;58.49;98337.47;5072838;28;20227;-75
2023/06/28 08:10:02;;;;;;;4.63;2.70;;;;;;;20.95;58.49;98338.63;5071929;28;20214;-74
2023/06/28 08:12:28;;;;;;;4.70;2.73;;;;;;;21.10;57.03;98331.59;5072053;28;20218;-76
2023/06/28 08:14:55;;;;;;;7.40;2.83;;;;;;;21.08;57.10;98328.25;5075314;28;20231;-74
2023/06/28 08:17:23;;;;;;;5.10;2.70;;;;;;;21.20;57.75;98334.13;5078087;28;20227;-74
2023/06/28 08:19:50;;;;;;;6.57;3.20;;;;;;;21.45;57.23;98333.13;5077734;28;20239;-75
2023/06/28 08:22:16;;;;;;;5.23;3.33;;;;;;;21.47;56.86;98328.41;5077734;28;20289;-76
2023/06/28 08:24:43;;;;;;;7.40;3.07;;;;;;;21.60;56.77;98329.59;5077607;28;20203;-76
2023/06/28 08:27:09;;;;;;;3.70;2.67;;;;;;;21.83;57.89;98335.94;5077303;28;20238;-80
2023/06/28 08:29:36;;;;;;;4.40;2.97;;;;;;;22.04;56.41;98333.56;5077343;28;20202;-82
2023/06/28 08:32:02;;;;;;;4.80;2.83;;;;;;;22.26;54.97;98326.59;5078649;28;20590;-85
2023/06/28 08:34:30;;;;;;;6.63;2.80;;;;;;;22.41;53.91;98314.91;5078137;28;20227;-82
2023/06/28 08:36:57;;;;;;;5.37;2.60;;;;;;;22.45;54.29;98320.81;5078350;28;20210;-80
2023/06/28 08:39:24;;;;;;;4.23;2.67;;;;;;;22.57;53.51;98322.97;5077857;28;20227;-81
2023/06/28 08:41:51;;;;;;;4.33;2.27;;;;;;;22.75;54.02;98307.34;5078321;28;20238;-81
2023/06/28 08:44:20;;;;;;;3.97;2.73;;;;;;;22.97;53.16;98316.50;5078971;28;20206;-84
2023/06/28 08:46:49;;;;;;;3.73;2.80;;;;;;;23.13;52.13;98308.25;5077991;28;20584;-77
2023/06/28 08:49:17;;;;;;;4.37;2.90;;;;;;;23.31;51.39;98300.75;5076740;28;20218;-78
2023/06/28 08:51:46;;;;;;;4.73;2.57;;;;;;;23.42;51.61;98306.53;5074748;28;20207;-77
2023/06/28 08:54:15;;;;;;;3.80;2.23;;;;;;;23.62;51.25;98305.00;5074780;28;20237;-77
2023/06/28 08:56:42;;;;;;;4.57;2.83;;;;;;;23.42;48.23;98284.13;5074969;28;20225;-78
2023/06/28 08:59:09;;;;;;;4.43;2.97;;;;;;;23.32;48.42;98283.53;5060158;22;20243;-80
2023/06/28 09:01:37;;;;;;;3.87;2.70;;;;;;;23.45;48.55;98289.13;5036137;28;20224;-79
2023/06/28 09:04:05;;;;;;;4.63;2.53;;;;;;;23.60;48.88;98293.53;5035393;28;20201;-79
2023/06/28 09:06:32;;;;;;;4.10;2.63;;;;;;;23.64;48.35;98278.69;5034451;28;20216;-79
2023/06/28 09:09:02;;;;;;;6.37;3.00;;;;;;;23.74;48.72;98284.66;5034292;28;20258;-79
2023/06/28 09:11:29;;;;;;;5.37;3.00;;;;;;;23.75;48.30;98274.69;5034714;28;20262;-79
2023/06/28 09:13:56;;;;;;;4.40;2.27;;;;;;;23.58;48.43;98265.09;5036866;28;20228;-79
2023/06/28 09:16:23;;;;;;;3.80;2.60;;;;;;;23.55;49.29;98277.09;5036845;28;20212;-79
2023/06/28 09:18:49;;;;;;;4.90;2.60;;;;;;;23.79;49.75;98282.25;5033979;28;20232;-81
2023/06/28 09:21:25;;;;;;;2.80;2.00;;;;;;;23.90;49.25;98284.50;5034010;28;20205;-82
2023/06/28 09:23:51;;;;;;;3.37;2.70;;;;;;;24.10;48.93;98291.03;5034391;28;20551;-77
2023/06/28 09:26:20;;;;;;;2.50;2.20;;;;;;;24.29;46.25;98262.59;5034512;28;20231;-80
2023/06/28 09:28:46;;;;;;;5.70;2.80;;;;;;;24.44;45.25;98256.13;5033640;28;20237;-79
2023/06/28 09:31:19;;;;;;;5.30;2.57;;;;;;;24.61;45.02;98257.63;5031288;28;20213;-83
2023/06/28 09:33:53;;;;;;;6.17;2.77;;;;;;;24.75;46.23;98261.31;5030930;28;20240;-78
2023/06/28 09:36:19;;;;;;;4.37;2.27;;;;;;;24.86;43.71;98236.50;5030951;28;20659;-77
2023/06/28 09:38:46;;;;;;;3.37;2.03;;;;;;;25.03;44.03;98249.53;5031800;28;20603;-79
2023/06/28 09:41:13;;;;;;;4.03;2.20;;;;;;;24.93;41.37;98246.31;5033107;28;20205;-76
2023/06/28 09:43:42;;;;;;;3.40;2.03;;;;;;;24.59;41.58;98251.59;5032668;28;20239;-76
2023/06/28 09:46:13;;;;;;;5.70;2.47;;;;;;;24.24;42.00;98252.38;5030806;28;20220;-76
2023/06/28 09:48:42;;;;;;;5.80;2.40;;;;;;;23.97;42.93;98257.59;5030586;28;20303;-76
2023/06/28 09:51:10;;;;;;;3.83;2.20;;;;;;;23.86;43.37;98260.72;5030465;28;20279;-75
2023/06/28 09:53:48;;;;;;;5.10;2.60;;;;;;;24.16;42.53;98247.06;5031927;28;20492;-76
2023/06/28 09:56:14;;;;;;;2.90;1.70;;;;;;;24.10;43.10;98255.06;5033677;28;20287;-76
2023/06/28 09:58:43;;;;;;;4.30;2.10;;;;;;;24.27;43.32;98254.66;5030443;28;20241;-75
2023/06/28 10:01:10;;;;;;;2.73;1.80;;;;;;;24.59;42.83;98254.28;5030450;28;20209;-78
2023/06/28 10:03:38;;;;;;;4.40;2.03;;;;;;;24.91;41.79;98237.56;5030938;28;20205;-77
2023/06/28 10:06:06;;;;;;;2.87;1.97;;;;;;;24.89;41.15;98239.63;5031794;28;20679;-76
2023/06/28 10:08:33;;;;;;;3.57;1.83;;;;;;;24.81;41.24;98249.75;5033311;28;20229;-77
2023/06/28 10:11:00;;;;;;;3.17;1.93;;;;;;;24.80;41.39;98242.66;5031363;28;20238;-76
2023/06/28 10:13:29;;;;;;;3.47;1.83;;;;;;;24.49;41.58;98239.34;5030334;28;20232;-77
2023/06/28 10:16:06;;;;;;;4.27;2.00;;;;;;;24.55;41.40;98242.13;5030411;28;20213;-76
2023/06/28 10:18:33;;;;;;;2.17;1.80;;;;;;;24.42;40.73;98225.78;5030497;28;20243;-77
2023/06/28 10:21:00;;;;;;;4.07;1.90;;;;;;;24.47;40.77;98228.75;5032877;28;20588;-79
2023/06/28 10:23:27;;;;;;;3.93;2.37;;;;;;;24.27;40.79;98222.25;5033136;28;20208;-78
2023/06/28 10:25:55;;;;;;;3.67;1.93;;;;;;;24.10;41.13;98231.63;5030229;28;20201;-77
2023/06/28 10:28:22;;;;;;;3.17;1.73;;;;;;;24.06;41.69;98237.56;5029880;28;20446;-75
2023/06/28 10:30:52;;;;;;;3.70;2.10;;;;;;;24.23;41.96;98234.47;5029662;28;20247;-77
2023/06/28 10:33:23;;;;;;;3.93;1.73;;;;;;;24.29;41.18;98230.19;5031776;28;20216;-77
2023/06/28 10:35:52;;;;;;;2.50;1.90;;;;;;;24.29;40.66;98220.22;5032824;28;20212;-77
2023/06/28 10:38:19;;;;;;;3.50;1.50;;;;;;;24.31;40.71;98212.75;5029974;28;20233;-77
2023/06/28 10:40:47;;;;;;;4.20;1.80;;;;;;;24.36;41.33;98217.59;5029753;28;20213;-77
2023/06/28 10:43:22;;;;;;;3.50;1.90;;;;;;;24.66;40.74;98217.34;5029753;28;20220;-76
2023/06/28 10:45:48;;;;;;;2.50;1.67;;;;;;;24.67;40.26;98220.88;5030326;28;20270;-77
2023/06/28 10:48:20;;;;;;;2.30;1.40;;;;;;;24.79;40.56;98222.88;5032309;28;20236;-77
2023/06/28 10:50:48;;;;;;;2.97;1.60;;;;;;;24.99;39.57;98215.78;5032150;28;20213;-77
2023/06/28 10:53:22;;;;;;;3.50;2.20;;;;;;;25.13;39.12;98217.59;5032339;28;20201;-77
2023/06/28 10:56:09;;;;;;;2.10;1.90;;;;;;;25.11;39.62;98224.25;5032203;28;20255;-77
2023/06/28 10:58:40;;;;;;;5.47;2.08;;;;;;;25.05;39.14;98206.09;5032071;28;20326;-77
2023/06/28 11:01:07;;;;;;;2.28;1.70;;;;;;;25.01;39.79;98211.06;5031880;28;20204;-77
2023/06/28 11:03:43;;;;;;;2.27;1.67;;;;;;;24.99;38.90;98199.56;5032045;28;20244;-77
2023/06/28 11:06:11;;;;;;;4.55;1.77;;;;;;;24.98;39.17;98199.75;5032104;28;20627;-77
2023/06/28 11:08:40;;;;;;;3.10;2.10;;;;;;;24.90;39.51;98198.03;5031840;28;20224;-77
2023/06/28 11:11:08;;;;;;;4.23;1.80;;;;;;;24.51;39.13;98192.19;5032172;28;20232;-77
2023/06/28 11:13:45;;;;;;;3.60;1.53;;;;;;;24.41;40.32;98205.19;5032215;28;20232;-77
2023/06/28 11:16:16;;;;;;;3.83;1.83;;;;;;;24.43;40.04;98200.44;5031886;28;20692;-79
2023/06/28 11:18:46;;;;;;;4.10;2.00;;;;;;;24.46;39.92;98194.66;5031798;28;20240;-80
2023/06/28 11:21:17;;;;;;;4.33;1.93;;;;;;;24.48;40.94;98214.22;5029045;28;20298;-80
2023/06/28 11:23:45;;;;;;;3.88;1.95;;;;;;;24.77;41.19;98216.84;5030989;28;20444;-77
2023/06/28 11:26:14;;;;;;;5.37;1.90;;;;;;;24.79;39.47;98203.97;5031515;28;20235;-76
2023/06/28 11:28:48;;;;;;;5.33;1.97;;;;;;;24.82;39.66;98205.44;5031487;28;20243;-80
2023/06/28 11:31:16;;;;;;;4.73;2.00;;;;;;;24.72;39.82;98208.47;5031327;28;20215;-79
2023/06/28 11:33:44;;;;;;;5.63;2.00;;;;;;;24.73;39.91;98210.16;5031549;28;20270;-80
2023/06/28 11:36:12;;;;;;;4.33;2.00;;;;;;;24.66;40.05;98217.34;5031819;28;20236;-80